Time;durP1;ratioP1;P1;durP2;ratioP2;P2;SDS_P1;SDS_P2;PMS_P1;PMS_P2;Temp;Humidity;BMP_temperature;BMP_pressure;BME280_temperature;BME280_humidity;BME280_pressure;Samples;Min_cycle;Max_cycle;Signal;HPM_P1;HPM_P2
2023/01/12 00:04:16;;;;;;;33.50;17.20;;;;;;;-128.00;-1.00;-1.00;263249;1279;1002391;-84
2023/01/12 00:10:19;;;;;;;36.90;18.40;;;;;;;-128.00;-1.00;-1.00;263109;1271;1002910;-84
2023/01/12 00:16:39;;;;;;;36.10;19.90;;;;;;;-128.00;-1.00;-1.00;262729;1279;1002800;-85
2023/01/12 00:22:42;;;;;;;44.10;21.80;;;;;;;-128.00;-1.00;-1.00;262684;1273;1002902;-85
2023/01/12 00:28:56;;;;;;;46.30;23.50;;;;;;;-128.00;-1.00;-1.00;263499;1273;1002595;-84
2023/01/12 00:35:00;;;;;;;50.00;24.10;;;;;;;-128.00;-1.00;-1.00;262658;1281;1003494;-84
2023/01/12 00:41:11;;;;;;;44.20;22.90;;;;;;;-128.00;-1.00;-1.00;262690;1274;1002654;-86
2023/01/12 00:47:33;;;;;;;43.70;22.20;;;;;;;-128.00;-1.00;-1.00;262912;1273;1002147;-84
2023/01/12 00:53:39;;;;;;;40.30;21.10;;;;;;;-128.00;-1.00;-1.00;262997;1271;1002579;-84
2023/01/12 00:59:43;;;;;;;46.00;22.30;;;;;;;-128.00;-1.00;-1.00;263289;1280;1002579;-84
2023/01/12 01:05:46;;;;;;;40.10;20.90;;;;;;;-128.00;-1.00;-1.00;262443;1274;1002844;-85
2023/01/12 01:11:55;;;;;;;42.10;20.60;;;;;;;-128.00;-1.00;-1.00;261947;1277;1002327;-85
2023/01/12 01:17:58;;;;;;;43.70;20.50;;;;;;;-128.00;-1.00;-1.00;262371;1281;1002504;-85
2023/01/12 01:24:01;;;;;;;37.80;20.60;;;;;;;-128.00;-1.00;-1.00;262494;1279;1003606;-85
2023/01/12 01:30:08;;;;;;;43.80;21.60;;;;;;;-128.00;-1.00;-1.00;262413;1279;1003381;-85
2023/01/12 01:36:15;;;;;;;41.10;20.50;;;;;;;-128.00;-1.00;-1.00;262847;1274;1002582;-86
2023/01/12 01:42:29;;;;;;;39.80;19.90;;;;;;;-128.00;-1.00;-1.00;262640;1279;1002796;-85
2023/01/12 01:48:42;;;;;;;40.70;20.60;;;;;;;-128.00;-1.00;-1.00;263404;1279;1003562;-87
2023/01/12 01:55:10;;;;;;;41.60;21.40;;;;;;;-128.00;-1.00;-1.00;263502;1279;1002812;-86
2023/01/12 02:01:13;;;;;;;40.50;20.90;;;;;;;-128.00;-1.00;-1.00;263555;1276;1002467;-86
2023/01/12 02:07:19;;;;;;;39.50;19.90;;;;;;;-128.00;-1.00;-1.00;263462;1279;1002644;-86
2023/01/12 02:20:29;;;;;;;39.10;19.10;;;;;;;-128.00;-1.00;-1.00;263582;1274;1003125;-84
2023/01/12 02:26:42;;;;;;;40.40;20.60;;;;;;;-128.00;-1.00;-1.00;263025;1279;1002942;-85
2023/01/12 02:33:27;;;;;;;40.90;21.60;;;;;;;-128.00;-1.00;-1.00;263403;1279;1002809;-86
2023/01/12 02:39:43;;;;;;;42.00;20.60;;;;;;;-128.00;-1.00;-1.00;263451;1279;1003004;-84
2023/01/12 02:45:53;;;;;;;39.60;20.80;;;;;;;-128.00;-1.00;-1.00;263639;1276;1002535;-83
2023/01/12 02:52:03;;;;;;;39.20;20.60;;;;;;;-128.00;-1.00;-1.00;263531;1279;1002727;-84
2023/01/12 02:58:09;;;;;;;46.30;22.90;;;;;;;-128.00;-1.00;-1.00;262932;1273;1002324;-85
2023/01/12 03:04:14;;;;;;;48.70;24.20;;;;;;;-128.00;-1.00;-1.00;263425;1273;1002585;-85
2023/01/12 03:10:39;;;;;;;43.70;23.70;;;;;;;-128.00;-1.00;-1.00;263662;1279;1002726;-85
2023/01/12 03:16:42;;;;;;;44.10;24.60;;;;;;;-128.00;-1.00;-1.00;263483;1279;1002660;-83
2023/01/12 03:22:52;;;;;;;39.20;21.60;;;;;;;-128.00;-1.00;-1.00;263718;1271;1003209;-83
2023/01/12 03:29:04;;;;;;;43.50;22.90;;;;;;;-128.00;-1.00;-1.00;263725;1276;1002348;-83
2023/01/12 03:35:08;;;;;;;44.70;24.40;;;;;;;-128.00;-1.00;-1.00;263629;1274;1002753;-81
2023/01/12 03:41:30;;;;;;;39.40;21.90;;;;;;;-128.00;-1.00;-1.00;263922;1276;1002723;-81
2023/01/12 03:47:36;;;;;;;47.30;24.30;;;;;;;-128.00;-1.00;-1.00;263349;1265;1002812;-81
2023/01/12 03:53:39;;;;;;;41.30;22.50;;;;;;;-128.00;-1.00;-1.00;262492;1274;1002884;-81
2023/01/12 03:59:45;;;;;;;50.90;25.20;;;;;;;-128.00;-1.00;-1.00;263563;1276;1003758;-81
2023/01/12 04:05:48;;;;;;;46.20;24.70;;;;;;;-128.00;-1.00;-1.00;262198;1275;1002867;-81
2023/01/12 04:12:12;;;;;;;53.90;26.90;;;;;;;-128.00;-1.00;-1.00;262417;1274;1002830;-82
2023/01/12 04:18:16;;;;;;;48.10;26.00;;;;;;;-128.00;-1.00;-1.00;262333;1274;1002963;-80
2023/01/12 04:24:18;;;;;;;47.10;23.00;;;;;;;-128.00;-1.00;-1.00;262465;1274;1002914;-82
2023/01/12 04:30:26;;;;;;;46.00;24.00;;;;;;;-128.00;-1.00;-1.00;262345;1276;1002393;-82
2023/01/12 04:36:32;;;;;;;44.20;22.50;;;;;;;-128.00;-1.00;-1.00;262225;1274;1002995;-81
2023/01/12 04:49:09;;;;;;;48.90;24.70;;;;;;;-128.00;-1.00;-1.00;262523;1277;1002815;-81
2023/01/12 04:55:12;;;;;;;45.30;24.20;;;;;;;-128.00;-1.00;-1.00;262464;1274;1003970;-82
2023/01/12 05:01:17;;;;;;;44.70;24.30;;;;;;;-128.00;-1.00;-1.00;262447;1267;1004684;-82
2023/01/12 05:07:20;;;;;;;42.10;23.50;;;;;;;-128.00;-1.00;-1.00;262884;1272;1002804;-82
2023/01/12 05:13:28;;;;;;;36.30;19.80;;;;;;;-128.00;-1.00;-1.00;262817;1276;1002530;-83
2023/01/12 05:19:31;;;;;;;38.90;20.60;;;;;;;-128.00;-1.00;-1.00;263730;1274;1002703;-82
2023/01/12 05:25:39;;;;;;;40.20;22.00;;;;;;;-128.00;-1.00;-1.00;263401;1273;1002713;-82
2023/01/12 05:31:42;;;;;;;45.00;22.50;;;;;;;-128.00;-1.00;-1.00;263326;1276;1002751;-84
2023/01/12 05:37:53;;;;;;;39.50;19.40;;;;;;;-128.00;-1.00;-1.00;263438;1274;1002832;-82
2023/01/12 05:44:07;;;;;;;39.70;20.10;;;;;;;-128.00;-1.00;-1.00;264010;1275;1002563;-83
2023/01/12 05:50:10;;;;;;;32.20;18.20;;;;;;;-128.00;-1.00;-1.00;263641;1276;1004663;-82
2023/01/12 05:56:24;;;;;;;35.40;18.80;;;;;;;-128.00;-1.00;-1.00;263074;1273;1002362;-82
2023/01/12 06:02:27;;;;;;;39.50;21.60;;;;;;;-128.00;-1.00;-1.00;263109;1277;1002397;-83
2023/01/12 06:08:30;;;;;;;33.60;19.40;;;;;;;-128.00;-1.00;-1.00;262728;1276;1002751;-82
2023/01/12 06:14:34;;;;;;;35.00;18.00;;;;;;;-128.00;-1.00;-1.00;262539;1276;1002698;-82
2023/01/12 06:20:40;;;;;;;34.40;18.30;;;;;;;-128.00;-1.00;-1.00;262370;1274;1002646;-81
2023/01/12 06:26:46;;;;;;;32.40;17.70;;;;;;;-128.00;-1.00;-1.00;262320;1274;1002887;-81
2023/01/12 06:32:49;;;;;;;33.50;17.90;;;;;;;-128.00;-1.00;-1.00;262738;1274;1002758;-83
2023/01/12 06:38:52;;;;;;;33.20;17.60;;;;;;;-128.00;-1.00;-1.00;263595;1276;1002908;-83
2023/01/12 06:44:56;;;;;;;29.50;16.70;;;;;;;-128.00;-1.00;-1.00;263136;1279;1002631;-83
2023/01/12 06:51:03;;;;;;;29.20;15.90;;;;;;;-132.28;19.20;23824.43;263411;1272;1002632;-81
2023/01/12 06:57:06;;;;;;;32.90;17.90;;;;;;;-128.00;-1.00;-1.00;262700;1274;1003015;-82
2023/01/12 07:03:18;;;;;;;36.00;20.40;;;;;;;-128.00;-1.00;-1.00;262464;1274;1002601;-81
2023/01/12 07:09:21;;;;;;;39.90;21.50;;;;;;;-132.28;19.20;23824.43;263926;1274;1002273;-82
2023/01/12 07:15:28;;;;;;;37.90;20.60;;;;;;;-128.00;-1.00;-1.00;263810;1279;1002375;-86
2023/01/12 07:21:30;;;;;;;41.80;21.90;;;;;;;-128.00;-1.00;-1.00;263643;1274;1002759;-86
2023/01/12 07:27:42;;;;;;;39.70;22.20;;;;;;;-128.00;-1.00;-1.00;263950;1277;1004324;-91
2023/01/12 07:33:57;;;;;;;38.10;21.30;;;;;;;-128.00;-1.00;-1.00;264175;1258;1002736;-83
2023/01/12 07:40:02;;;;;;;41.10;21.30;;;;;;;-128.00;-1.00;-1.00;263634;1273;1002459;-82
2023/01/12 07:46:23;;;;;;;37.00;20.70;;;;;;;-128.00;-1.00;-1.00;264879;1265;1002915;-87
2023/01/12 07:52:26;;;;;;;38.60;20.60;;;;;;;-128.00;-1.00;-1.00;264832;1279;1002718;-88
2023/01/12 07:58:45;;;;;;;35.40;19.90;;;;;;;-128.00;-1.00;-1.00;264380;1273;1002550;-86
2023/01/12 08:04:54;;;;;;;34.30;19.10;;;;;;;-128.00;-1.00;-1.00;264376;1279;1003633;-86
2023/01/12 08:11:05;;;;;;;34.30;18.40;;;;;;;-128.00;-1.00;-1.00;264388;1274;1003047;-86
2023/01/12 08:17:16;;;;;;;34.70;17.60;;;;;;;-128.00;-1.00;-1.00;264295;1277;1002481;-86
2023/01/12 08:23:28;;;;;;;33.70;18.70;;;;;;;-128.00;-1.00;-1.00;263840;1279;1002358;-83
2023/01/12 08:29:39;;;;;;;30.80;17.40;;;;;;;-128.00;-1.00;-1.00;264207;1279;1002131;-86
2023/01/12 08:35:59;;;;;;;28.80;17.40;;;;;;;-128.00;-1.00;-1.00;263837;1273;1002663;-85
2023/01/12 08:42:05;;;;;;;31.30;18.20;;;;;;;-128.00;-1.00;-1.00;264196;1279;1003718;-86
2023/01/12 08:48:08;;;;;;;33.30;18.10;;;;;;;-128.00;-1.00;-1.00;263571;1279;1003164;-85
2023/01/12 08:54:28;;;;;;;30.00;16.80;;;;;;;-128.00;-1.00;-1.00;263755;1279;1002198;-86
2023/01/12 09:00:52;;;;;;;;;;;;;;;;;;;;;
2023/01/12 09:07:23;;;;;;;29.90;17.10;;;;;;;-128.00;-1.00;-1.00;263104;1282;1002633;-88
2023/01/12 09:13:29;;;;;;;28.90;14.80;;;;;;;-128.00;-1.00;-1.00;262680;1282;1002894;-87
2023/01/12 09:19:32;;;;;;;29.90;15.90;;;;;;;-128.00;-1.00;-1.00;262181;1283;1002593;-87
2023/01/12 09:25:38;;;;;;;26.40;15.60;;;;;;;-128.00;-1.00;-1.00;262308;1282;1002503;-90
2023/01/12 09:31:43;;;;;;;21.70;13.10;;;;;;;-128.00;-1.00;-1.00;262485;1282;1002246;-88
2023/01/12 09:37:46;;;;;;;26.40;14.10;;;;;;;-128.00;-1.00;-1.00;263354;1282;1002921;-88
2023/01/12 09:50:31;;;;;;;9.70;5.00;;;;;;;-128.00;-1.00;-1.00;263293;1279;1002527;-89
2023/01/12 09:57:00;;;;;;;7.70;4.60;;;;;;;-128.00;-1.00;-1.00;262969;1279;1002502;-87
2023/01/12 10:03:28;;;;;;;5.70;3.50;;;;;;;-128.00;-1.00;-1.00;262909;1279;1002594;-86
2023/01/12 10:09:36;;;;;;;4.10;2.70;;;;;;;-128.00;-1.00;-1.00;263606;1279;1003042;-89
2023/01/12 10:15:56;;;;;;;6.30;2.80;;;;;;;-128.00;-1.00;-1.00;264095;1279;1002065;-89
2023/01/12 10:22:08;;;;;;;6.20;2.50;;;;;;;-128.00;-1.00;-1.00;263680;1279;1002796;-89
2023/01/12 10:28:51;;;;;;;;;;;;;;;;;;;;;
2023/01/12 10:35:29;;;;;;;4.40;2.00;;;;;;;-128.00;-1.00;-1.00;264088;1279;1002437;-89
2023/01/12 10:49:34;;;;;;;3.40;1.70;;;;;;;-128.00;-1.00;-1.00;265009;1279;1003254;-90
2023/01/12 10:57:16;;;;;;;4.00;1.60;;;;;;;-128.00;-1.00;-1.00;265129;1279;1002887;-90
2023/01/12 11:04:29;;;;;;;3.90;1.60;;;;;;;-128.00;-1.00;-1.00;266691;1279;1003144;-89
2023/01/12 11:11:48;;;;;;;3.90;1.90;;;;;;;-128.00;-1.00;-1.00;265170;1279;1002751;-88
2023/01/12 11:18:24;;;;;;;5.40;1.90;;;;;;;-128.00;-1.00;-1.00;265057;1279;1002719;-87
2023/01/12 11:24:58;;;;;;;5.30;1.90;;;;;;;-128.00;-1.00;-1.00;263979;1278;1002799;-87
2023/01/12 11:31:11;;;;;;;4.20;1.50;;;;;;;-128.00;-1.00;-1.00;263861;1279;1002494;-88
2023/01/12 11:37:14;;;;;;;5.60;1.40;;;;;;;-128.00;-1.00;-1.00;263184;1276;1002709;-86
2023/01/12 11:43:48;;;;;;;5.20;1.70;;;;;;;-128.00;-1.00;-1.00;263630;1276;1002588;-85
2023/01/12 11:50:02;;;;;;;3.40;1.30;;;;;;;-128.00;-1.00;-1.00;264253;1279;1002376;-89
2023/01/12 11:56:22;;;;;;;5.50;1.60;;;;;;;-128.00;-1.00;-1.00;264313;1279;1003032;-89
2023/01/12 12:02:53;;;;;;;5.30;1.60;;;;;;;-128.00;-1.00;-1.00;263586;1274;1002884;-89
2023/01/12 12:09:13;;;;;;;3.50;1.30;;;;;;;-128.00;-1.00;-1.00;262951;1279;1002887;-89
2023/01/12 12:15:35;;;;;;;3.70;1.30;;;;;;;-128.00;-1.00;-1.00;262535;1279;1002519;-83
2023/01/12 12:21:43;;;;;;;4.20;1.20;;;;;;;-128.00;-1.00;-1.00;262787;1279;1002558;-84
2023/01/12 12:28:09;;;;;;;5.90;0.90;;;;;;;-128.00;-1.00;-1.00;263754;1279;1004341;-89
2023/01/12 12:34:42;;;;;;;2.60;1.20;;;;;;;-128.00;-1.00;-1.00;264087;1278;1002871;-90
2023/01/12 12:48:02;;;;;;;6.30;1.50;;;;;;;-128.00;-1.00;-1.00;263597;1264;1002793;-88
2023/01/12 12:54:13;;;;;;;4.50;1.40;;;;;;;-128.00;-1.00;-1.00;263827;1276;1003205;-86
2023/01/12 13:00:35;;;;;;;6.10;1.70;;;;;;;-128.00;-1.00;-1.00;263885;1279;1003645;-85
2023/01/12 13:06:48;;;;;;;4.20;1.40;;;;;;;-128.00;-1.00;-1.00;263960;1279;1002806;-88
2023/01/12 13:13:01;;;;;;;4.00;1.80;;;;;;;-128.00;-1.00;-1.00;263685;1277;1002722;-87
2023/01/12 13:19:20;;;;;;;3.80;1.50;;;;;;;-132.28;19.20;23824.43;263957;1274;1002738;-88
2023/01/12 13:25:25;;;;;;;5.00;1.60;;;;;;;-128.00;-1.00;-1.00;264345;1271;1004524;-89
2023/01/12 13:31:30;;;;;;;4.00;1.60;;;;;;;-128.00;-1.00;-1.00;264330;1278;1002249;-88
2023/01/12 13:37:42;;;;;;;2.40;1.20;;;;;;;-128.00;-1.00;-1.00;263770;1277;1003178;-88
2023/01/12 13:43:55;;;;;;;3.90;1.30;;;;;;;-128.00;-1.00;-1.00;263210;1279;1002560;-86
2023/01/12 13:49:59;;;;;;;3.50;1.20;;;;;;;-128.00;-1.00;-1.00;263772;1274;1002790;-85
2023/01/12 13:56:05;;;;;;;3.70;1.30;;;;;;;-128.00;-1.00;-1.00;263835;1273;1002863;-90
2023/01/12 14:02:16;;;;;;;3.20;1.10;;;;;;;-128.00;-1.00;-1.00;264301;1279;1004811;-91
2023/01/12 14:08:54;;;;;;;4.60;1.30;;;;;;;-128.00;-1.00;-1.00;263170;1279;1003305;-88
2023/01/12 14:21:33;;;;;;;4.10;1.40;;;;;;;-128.00;-1.00;-1.00;262692;1275;1002567;-86
2023/01/12 14:27:38;;;;;;;3.10;1.30;;;;;;;-128.00;-1.00;-1.00;264319;1279;1002972;-90
2023/01/12 14:34:09;;;;;;;5.40;1.40;;;;;;;-128.00;-1.00;-1.00;264234;1279;1002076;-91
2023/01/12 14:40:35;;;;;;;2.40;1.20;;;;;;;-128.00;-1.00;-1.00;263899;1279;1002266;-90
2023/01/12 14:46:46;;;;;;;3.60;1.20;;;;;;;-128.00;-1.00;-1.00;264920;1279;1002540;-88
2023/01/12 14:52:50;;;;;;;2.60;1.10;;;;;;;-128.00;-1.00;-1.00;263883;1257;1002373;-88
2023/01/12 14:59:24;;;;;;;3.70;1.70;;;;;;;-100.41;19.20;19725.08;263585;1278;1002490;-88
2023/01/12 15:05:28;;;;;;;3.80;1.40;;;;;;;-100.41;19.20;19725.08;263818;1278;1004425;-88
2023/01/12 15:11:34;;;;;;;3.70;1.60;;;;;;;-128.00;-1.00;-1.00;263102;1279;1002916;-87
2023/01/12 15:30:42;;;;;;;4.40;1.60;;;;;;;-132.28;19.20;23824.43;265435;1279;1002710;-89
2023/01/12 15:36:45;;;;;;;5.40;1.70;;;;;;;-100.33;12.66;19827.46;264789;1279;1002912;-87
2023/01/12 15:42:52;;;;;;;6.20;2.00;;;;;;;-128.00;-1.00;-1.00;263788;1279;1002877;-90
2023/01/12 15:48:55;;;;;;;5.60;2.50;;;;;;;-132.28;19.20;23824.43;264076;1279;1002449;-86
2023/01/12 15:55:02;;;;;;;;;;;;;;;-128.00;-1.00;-1.00;262918;1279;1002548;-88
2023/01/12 16:01:09;;;;;;;5.70;2.30;;;;;;;-128.00;-1.00;-1.00;264008;1279;1003743;-86
2023/01/12 16:07:12;;;;;;;10.00;3.00;;;;;;;-132.28;19.20;23824.43;263417;1279;1003080;-87
2023/01/12 16:13:42;;;;;;;10.70;3.30;;;;;;;-128.00;-1.00;-1.00;262509;1279;1002674;-90
2023/01/12 16:20:07;;;;;;;8.80;3.50;;;;;;;-128.00;-1.00;-1.00;265700;1279;1002852;-86
2023/01/12 16:26:23;;;;;;;7.30;3.20;;;;;;;-128.00;-1.00;-1.00;264752;1279;1004272;-87
2023/01/12 16:32:28;;;;;;;8.70;3.60;;;;;;;-128.00;-1.00;-1.00;264119;1279;1002533;-83
2023/01/12 16:38:35;;;;;;;10.60;3.90;;;;;;;-128.00;-1.00;-1.00;262894;1279;1003726;-86
2023/01/12 16:44:53;;;;;;;12.10;4.40;;;;;;;-128.00;-1.00;-1.00;262919;1279;1004680;-86
2023/01/12 16:50:57;;;;;;;9.70;4.30;;;;;;;-128.00;-1.00;-1.00;263520;1279;1002694;-86
2023/01/12 16:57:00;;;;;;;12.00;4.70;;;;;;;-128.00;-1.00;-1.00;262790;1274;1002989;-82
2023/01/12 17:03:03;;;;;;;10.10;4.50;;;;;;;-128.00;-1.00;-1.00;263140;1279;1002353;-84
2023/01/12 17:09:09;;;;;;;9.00;4.70;;;;;;;-128.00;-1.00;-1.00;263447;1274;1002302;-88
2023/01/12 17:15:17;;;;;;;9.40;4.00;;;;;;;-128.00;-1.00;-1.00;263007;1279;1002783;-89
2023/01/12 17:21:34;;;;;;;11.60;4.30;;;;;;;-128.00;-1.00;-1.00;263403;1279;1002852;-90
2023/01/12 17:27:40;;;;;;;10.40;3.90;;;;;;;-128.00;-1.00;-1.00;264219;1279;1002860;-87
2023/01/12 17:33:47;;;;;;;11.40;4.30;;;;;;;-128.00;-1.00;-1.00;264006;1273;1002796;-88
2023/01/12 17:39:51;;;;;;;9.50;4.30;;;;;;;-128.00;-1.00;-1.00;264037;1279;1002577;-88
2023/01/12 17:45:55;;;;;;;8.90;4.40;;;;;;;-132.28;19.20;23824.43;264723;1279;1002790;-89
2023/01/12 17:51:58;;;;;;;11.00;4.50;;;;;;;-100.59;13.40;19818.48;265153;1274;1002438;-87
2023/01/12 17:58:08;;;;;;;13.00;5.20;;;;;;;-127.01;39.40;35133.83;264863;1274;1002787;-88
2023/01/12 18:04:12;;;;;;;10.50;4.60;;;;;;;-128.00;-1.00;-1.00;263269;1258;1002894;-87
2023/01/12 18:10:32;;;;;;;11.70;4.00;;;;;;;-45.94;42.95;59451.02;267862;1277;1002726;-91
2023/01/12 18:16:49;;;;;;;12.00;4.40;;;;;;;8.92;71.90;99081.79;268192;1279;22658;-85
2023/01/12 18:22:59;;;;;;;12.00;4.40;;;;;;;-128.00;-1.00;-1.00;263264;1279;1002967;-87
2023/01/12 18:29:05;;;;;;;10.90;4.50;;;;;;;-128.00;-1.00;-1.00;264636;1258;1002821;-86
2023/01/12 18:35:16;;;;;;;14.60;5.60;;;;;;;-128.00;-1.00;-1.00;263291;1279;1002583;-86
2023/01/12 18:54:04;;;;;;;14.20;5.20;;;;;;;-128.00;-1.00;-1.00;262702;1273;1003486;-84
2023/01/12 19:00:15;;;;;;;14.10;5.70;;;;;;;-128.00;-1.00;-1.00;262771;1274;1002369;-83
2023/01/12 19:06:26;;;;;;;14.30;6.10;;;;;;;-128.00;-1.00;-1.00;263016;1273;1002608;-84
2023/01/12 19:12:30;;;;;;;15.40;5.80;;;;;;;-128.00;-1.00;-1.00;263228;1277;1003344;-84
2023/01/12 19:18:37;;;;;;;13.80;5.60;;;;;;;-128.00;-1.00;-1.00;263849;1273;1005120;-86
2023/01/12 19:31:18;;;;;;;19.30;6.50;;;;;;;-128.00;-1.00;-1.00;263397;1273;1002925;-86
2023/01/12 19:37:29;;;;;;;16.40;6.70;;;;;;;-128.00;-1.00;-1.00;263660;1274;1003173;-84
2023/01/12 19:43:36;;;;;;;15.80;6.10;;;;;;;-128.00;-1.00;-1.00;262620;1273;1002723;-86
2023/01/12 19:49:40;;;;;;;17.70;6.60;;;;;;;-128.00;-1.00;-1.00;263665;1274;1002962;-84
2023/01/12 19:55:45;;;;;;;17.00;6.40;;;;;;;-128.00;-1.00;-1.00;263370;1277;1002739;-87
2023/01/12 20:01:52;;;;;;;14.30;6.00;;;;;;;-128.00;-1.00;-1.00;263942;1257;1004401;-86
2023/01/12 20:07:57;;;;;;;17.50;6.20;;;;;;;-77.45;40.29;59409.41;265915;1277;1002183;-84
2023/01/12 20:14:03;;;;;;;16.10;6.00;;;;;;;-128.00;-1.00;-1.00;263726;1279;1002654;-82
2023/01/12 20:20:18;;;;;;;13.60;5.60;;;;;;;-128.00;-1.00;-1.00;263487;1279;1002390;-86
2023/01/12 20:26:29;;;;;;;14.50;5.70;;;;;;;-128.00;-1.00;-1.00;263749;1279;1002796;-85
2023/01/12 20:32:43;;;;;;;18.60;5.70;;;;;;;-128.00;-1.00;-1.00;263883;1277;1002666;-89
2023/01/12 20:38:54;;;;;;;14.30;5.70;;;;;;;-128.00;-1.00;-1.00;264035;1279;1002586;-92
2023/01/12 20:45:04;;;;;;;11.70;5.00;;;;;;;-128.00;-1.00;-1.00;263521;1279;1003646;-85
2023/01/12 20:51:15;;;;;;;11.20;4.70;;;;;;;-128.00;-1.00;-1.00;263642;1279;1002616;-88
2023/01/12 20:57:20;;;;;;;10.80;4.80;;;;;;;-128.00;-1.00;-1.00;263616;1279;1002721;-84
2023/01/12 21:03:24;;;;;;;13.70;5.20;;;;;;;-128.00;-1.00;-1.00;264089;1276;1002323;-88
2023/01/12 21:09:33;;;;;;;12.90;4.30;;;;;;;-128.00;-1.00;-1.00;264113;1279;1002468;-85
2023/01/12 21:15:44;;;;;;;12.30;4.20;;;;;;;-128.00;-1.00;-1.00;263757;1279;1004485;-86
2023/01/12 21:21:49;;;;;;;10.80;4.40;;;;;;;-128.00;-1.00;-1.00;263780;1279;1004022;-82
2023/01/12 21:27:54;;;;;;;9.10;4.10;;;;;;;-128.00;-1.00;-1.00;263971;1279;1003334;-85
2023/01/12 21:34:08;;;;;;;9.90;4.20;;;;;;;-128.00;-1.00;-1.00;263784;1279;1002287;-87
2023/01/12 21:40:13;;;;;;;10.50;4.60;;;;;;;-128.00;-1.00;-1.00;263610;1279;1002702;-82
2023/01/12 21:46:17;;;;;;;11.10;4.20;;;;;;;-128.00;-1.00;-1.00;262609;1273;1004328;-80
2023/01/12 21:52:20;;;;;;;11.40;4.60;;;;;;;-128.00;-1.00;-1.00;262425;1279;1004039;-83
2023/01/12 21:58:23;;;;;;;9.40;4.10;;;;;;;-128.00;-1.00;-1.00;262517;1277;1002649;-83
2023/01/12 22:04:27;;;;;;;10.40;4.00;;;;;;;-128.00;-1.00;-1.00;262405;1279;1002830;-83
2023/01/12 22:10:32;;;;;;;10.20;4.00;;;;;;;-128.00;-1.00;-1.00;262579;1279;1002396;-83
2023/01/12 22:16:44;;;;;;;9.30;4.00;;;;;;;-128.00;-1.00;-1.00;262378;1280;1002831;-82
2023/01/12 22:22:50;;;;;;;16.70;7.60;;;;;;;-128.00;-1.00;-1.00;262541;1274;1003412;-83
2023/01/12 22:28:55;;;;;;;9.70;4.10;;;;;;;-128.00;-1.00;-1.00;262725;1273;1002283;-83
2023/01/12 22:35:00;;;;;;;12.50;4.10;;;;;;;-128.00;-1.00;-1.00;262371;1274;1002662;-83
2023/01/12 22:41:04;;;;;;;9.60;4.00;;;;;;;-128.00;-1.00;-1.00;262562;1276;1003217;-84
2023/01/12 22:47:08;;;;;;;11.00;3.80;;;;;;;-128.00;-1.00;-1.00;262508;1279;1003292;-85
2023/01/12 22:53:13;;;;;;;8.00;3.80;;;;;;;-128.00;-1.00;-1.00;262418;1273;1002623;-83
2023/01/12 22:59:16;;;;;;;5.80;2.90;;;;;;;-128.00;-1.00;-1.00;262421;1279;1002970;-84
2023/01/12 23:05:19;;;;;;;13.80;6.00;;;;;;;-128.00;-1.00;-1.00;262426;1279;1002179;-84
2023/01/12 23:11:24;;;;;;;5.90;2.70;;;;;;;-128.00;-1.00;-1.00;262482;1265;1002592;-83
2023/01/12 23:17:31;;;;;;;6.90;2.20;;;;;;;-128.00;-1.00;-1.00;262503;1274;1002581;-82
2023/01/12 23:23:37;;;;;;;3.90;1.60;;;;;;;-128.00;-1.00;-1.00;263394;1279;1002384;-84
2023/01/12 23:29:43;;;;;;;2.90;1.40;;;;;;;-128.00;-1.00;-1.00;263942;1279;1002671;-84
2023/01/12 23:35:46;;;;;;;5.80;1.70;;;;;;;-128.00;-1.00;-1.00;263746;1274;1002786;-83
2023/01/12 23:41:52;;;;;;;3.70;1.70;;;;;;;-128.00;-1.00;-1.00;263679;1274;1002662;-84
2023/01/12 23:47:56;;;;;;;3.90;1.60;;;;;;;-128.00;-1.00;-1.00;263747;1279;1002735;-84
2023/01/12 23:54:02;;;;;;;4.30;1.60;;;;;;;-128.00;-1.00;-1.00;264011;1274;1002577;-83
